SLLP/LPB METAR and TAF weather

Enter ICAO airport designator
Station Type Date Time Source
SLLP METAR 2022/06/28 15:00 UTC NOAA

SLLP 281500Z 23006KT 9999 NSC 10/M08 Q1042


Station Type Date Time Source
SLLP Decoded METAR 2022/06/28 15:00 UTC NOAA

La Paz / Alto, Bolivia (SLLP) 16-31S 068-11W 4038M
Jun 28, 2022 - 11:00 AM EDT / 2022.06.28 1500 UTC
Wind: from the SW (230 degrees) at 7 MPH (6 KT):0
Visibility: greater than 7 mile(s):0
Temperature: 50 F (10 C)
Dew Point: 17 F (-8 C)
Relative Humidity: 27%
Pressure (altimeter): 30.77 in. Hg (1042 hPa)
ob: SLLP 281500Z 23006KT 9999 NSC 10/M08 Q1042
cycle: 15

Station Type Date Time Source
SLLP TAF 2022/06/28 12:41 UTC NOAA

TAF SLLP 281000Z 2812/2912 VRB02KT 9999 NSC TX15/2819Z TNM06/2911Z
BECMG 2813/2816 26010KT
BECMG 2823/2901 02005KT

Example: see airport list